Versailles, New York
Current Conditions -  °F | °C
As of 5:31 AM on Thursday 23 Oct 2014 (Local Time) from KDKK Reporting Station
Scattered Clouds Scattered Clouds  
Wind Chill: 43°   Ceiling: Unl
Heat Index: 48°   Visibility: 10mi
Dew Point: 43°   Wind: 10mph
Humidity: 83%   Direction: 360°N
Pressure: 30.15"   Gusts: NA
Location:  42.52°N, 79°W
Report Text: KDKK 230931Z AUTO 36009KT 10SM SCT015 SCT020 09/06 A3015 RMK AO2 T00890061
Loading
Personal Weather Stations






























Interactive Weather Map
Tropical Storm Tracking
New forecast layout! Learn more

10-Day Weather Forecast

Advertisements
Track Severe Weather on mobile